sensor_id;sensor_type;location;lat;lon;timestamp;temperature;humidity
70244;DHT22;57634;51.136;17.024;2023-06-19T00:00:36;19.60;61.40
70244;DHT22;57634;51.136;17.024;2023-06-19T00:04:10;19.60;61.60
70244;DHT22;57634;51.136;17.024;2023-06-19T00:07:11;19.50;62.10
70244;DHT22;57634;51.136;17.024;2023-06-19T00:10:13;19.40;62.30
70244;DHT22;57634;51.136;17.024;2023-06-19T00:13:14;19.40;62.70
70244;DHT22;57634;51.136;17.024;2023-06-19T00:16:15;19.30;62.90
70244;DHT22;57634;51.136;17.024;2023-06-19T00:19:17;19.20;63.10
70244;DHT22;57634;51.136;17.024;2023-06-19T00:22:19;19.20;63.30
70244;DHT22;57634;51.136;17.024;2023-06-19T00:25:21;19.10;63.50
70244;DHT22;57634;51.136;17.024;2023-06-19T00:28:25;19.00;64.00
70244;DHT22;57634;51.136;17.024;2023-06-19T00:31:27;18.90;64.50
70244;DHT22;57634;51.136;17.024;2023-06-19T00:34:29;18.80;65.10
70244;DHT22;57634;51.136;17.024;2023-06-19T00:37:31;18.70;65.50
70244;DHT22;57634;51.136;17.024;2023-06-19T00:40:33;18.60;66.00
70244;DHT22;57634;51.136;17.024;2023-06-19T00:44:00;18.50;66.20
70244;DHT22;57634;51.136;17.024;2023-06-19T00:47:03;18.40;66.90
70244;DHT22;57634;51.136;17.024;2023-06-19T00:50:05;18.30;67.40
70244;DHT22;57634;51.136;17.024;2023-06-19T00:53:07;18.20;67.80
70244;DHT22;57634;51.136;17.024;2023-06-19T00:56:09;18.20;68.20
70244;DHT22;57634;51.136;17.024;2023-06-19T00:59:18;18.10;68.40
70244;DHT22;57634;51.136;17.024;2023-06-19T01:02:19;18.10;68.50
70244;DHT22;57634;51.136;17.024;2023-06-19T01:05:24;18.00;68.70
70244;DHT22;57634;51.136;17.024;2023-06-19T01:12:10;18.00;69.00
70244;DHT22;57634;51.136;17.024;2023-06-19T01:15:15;17.90;69.40
70244;DHT22;57634;51.136;17.024;2023-06-19T01:18:19;17.90;69.70
70244;DHT22;57634;51.136;17.024;2023-06-19T01:21:22;17.90;69.80
70244;DHT22;57634;51.136;17.024;2023-06-19T01:24:23;17.90;70.00
70244;DHT22;57634;51.136;17.024;2023-06-19T01:27:25;17.90;70.10
70244;DHT22;57634;51.136;17.024;2023-06-19T01:30:31;17.90;69.90
70244;DHT22;57634;51.136;17.024;2023-06-19T01:33:38;17.90;69.80
70244;DHT22;57634;51.136;17.024;2023-06-19T01:36:41;18.00;69.60
70244;DHT22;57634;51.136;17.024;2023-06-19T01:40:10;18.00;69.40
70244;DHT22;57634;51.136;17.024;2023-06-19T01:43:12;18.00;69.60
70244;DHT22;57634;51.136;17.024;2023-06-19T01:46:13;18.00;69.70
70244;DHT22;57634;51.136;17.024;2023-06-19T01:49:15;17.90;69.80
70244;DHT22;57634;51.136;17.024;2023-06-19T01:52:16;17.90;69.70
70244;DHT22;57634;51.136;17.024;2023-06-19T01:55:17;17.90;69.80
70244;DHT22;57634;51.136;17.024;2023-06-19T01:58:19;17.90;69.70
70244;DHT22;57634;51.136;17.024;2023-06-19T02:01:20;17.90;69.70
70244;DHT22;57634;51.136;17.024;2023-06-19T02:04:21;17.80;69.80
70244;DHT22;57634;51.136;17.024;2023-06-19T02:07:22;17.80;69.80
70244;DHT22;57634;51.136;17.024;2023-06-19T02:10:24;17.80;69.90
70244;DHT22;57634;51.136;17.024;2023-06-19T02:13:25;17.70;69.80
70244;DHT22;57634;51.136;17.024;2023-06-19T02:16:26;17.70;69.90
70244;DHT22;57634;51.136;17.024;2023-06-19T02:19:28;17.70;70.20
70244;DHT22;57634;51.136;17.024;2023-06-19T02:22:57;17.60;70.50
70244;DHT22;57634;51.136;17.024;2023-06-19T02:25:58;17.60;70.80
70244;DHT22;57634;51.136;17.024;2023-06-19T02:29:00;17.40;70.90
70244;DHT22;57634;51.136;17.024;2023-06-19T02:32:02;17.40;71.20
70244;DHT22;57634;51.136;17.024;2023-06-19T02:35:07;17.40;71.50
70244;DHT22;57634;51.136;17.024;2023-06-19T02:38:11;17.30;71.60
70244;DHT22;57634;51.136;17.024;2023-06-19T02:41:15;17.20;71.90
70244;DHT22;57634;51.136;17.024;2023-06-19T02:44:16;17.20;72.10
70244;DHT22;57634;51.136;17.024;2023-06-19T02:47:18;17.10;72.20
70244;DHT22;57634;51.136;17.024;2023-06-19T02:50:19;17.00;72.40
70244;DHT22;57634;51.136;17.024;2023-06-19T02:53:20;16.90;72.70
70244;DHT22;57634;51.136;17.024;2023-06-19T02:56:22;16.90;73.10
70244;DHT22;57634;51.136;17.024;2023-06-19T02:59:51;16.80;73.40
70244;DHT22;57634;51.136;17.024;2023-06-19T03:02:53;16.80;74.00
70244;DHT22;57634;51.136;17.024;2023-06-19T03:05:54;16.80;74.10
70244;DHT22;57634;51.136;17.024;2023-06-19T03:08:55;16.90;74.20
70244;DHT22;57634;51.136;17.024;2023-06-19T03:11:57;16.90;74.20
70244;DHT22;57634;51.136;17.024;2023-06-19T03:14:58;17.00;74.10
70244;DHT22;57634;51.136;17.024;2023-06-19T03:18:00;17.00;74.20
70244;DHT22;57634;51.136;17.024;2023-06-19T03:21:07;17.20;74.10
70244;DHT22;57634;51.136;17.024;2023-06-19T03:24:09;17.30;73.90
70244;DHT22;57634;51.136;17.024;2023-06-19T03:27:10;17.40;73.60
70244;DHT22;57634;51.136;17.024;2023-06-19T03:30:11;17.50;73.30
70244;DHT22;57634;51.136;17.024;2023-06-19T03:33:14;17.60;73.10
70244;DHT22;57634;51.136;17.024;2023-06-19T03:36:15;17.70;73.00
70244;DHT22;57634;51.136;17.024;2023-06-19T03:39:42;17.80;72.90
70244;DHT22;57634;51.136;17.024;2023-06-19T03:42:43;18.00;72.70
70244;DHT22;57634;51.136;17.024;2023-06-19T03:45:45;18.20;72.50
70244;DHT22;57634;51.136;17.024;2023-06-19T03:48:46;18.30;72.00
70244;DHT22;57634;51.136;17.024;2023-06-19T03:51:48;18.60;71.50
70244;DHT22;57634;51.136;17.024;2023-06-19T03:54:49;18.90;71.00
70244;DHT22;57634;51.136;17.024;2023-06-19T03:57:50;19.20;70.20
70244;DHT22;57634;51.136;17.024;2023-06-19T04:00:53;19.70;69.10
70244;DHT22;57634;51.136;17.024;2023-06-19T04:03:54;20.10;67.80
70244;DHT22;57634;51.136;17.024;2023-06-19T04:06:55;20.60;66.30
70244;DHT22;57634;51.136;17.024;2023-06-19T04:09:57;21.10;65.00
70244;DHT22;57634;51.136;17.024;2023-06-19T04:13:00;21.60;63.60
70244;DHT22;57634;51.136;17.024;2023-06-19T04:16:01;22.10;62.20
70244;DHT22;57634;51.136;17.024;2023-06-19T04:19:02;22.60;60.70
70244;DHT22;57634;51.136;17.024;2023-06-19T04:22:31;23.00;59.40
70244;DHT22;57634;51.136;17.024;2023-06-19T04:25:32;23.60;57.80
70244;DHT22;57634;51.136;17.024;2023-06-19T04:28:33;24.20;56.30
70244;DHT22;57634;51.136;17.024;2023-06-19T04:31:35;24.70;54.20
70244;DHT22;57634;51.136;17.024;2023-06-19T04:34:42;24.70;53.00
70244;DHT22;57634;51.136;17.024;2023-06-19T04:37:47;24.50;52.90
70244;DHT22;57634;51.136;17.024;2023-06-19T04:40:52;24.10;53.10
70244;DHT22;57634;51.136;17.024;2023-06-19T04:43:54;23.80;53.70
70244;DHT22;57634;51.136;17.024;2023-06-19T04:46:55;23.50;54.20
70244;DHT22;57634;51.136;17.024;2023-06-19T04:50:01;23.40;54.60
70244;DHT22;57634;51.136;17.024;2023-06-19T04:53:30;23.30;55.00
70244;DHT22;57634;51.136;17.024;2023-06-19T04:56:32;23.30;55.10
70244;DHT22;57634;51.136;17.024;2023-06-19T04:59:33;23.30;54.90
70244;DHT22;57634;51.136;17.024;2023-06-19T05:02:34;23.20;54.70
70244;DHT22;57634;51.136;17.024;2023-06-19T05:05:36;23.10;54.80
70244;DHT22;57634;51.136;17.024;2023-06-19T05:08:37;23.00;55.10
70244;DHT22;57634;51.136;17.024;2023-06-19T05:11:38;22.90;55.40
70244;DHT22;57634;51.136;17.024;2023-06-19T05:14:40;22.70;55.70
70244;DHT22;57634;51.136;17.024;2023-06-19T05:17:41;22.60;55.90
70244;DHT22;57634;51.136;17.024;2023-06-19T05:20:43;22.60;56.00
70244;DHT22;57634;51.136;17.024;2023-06-19T05:23:44;22.70;56.40
70244;DHT22;57634;51.136;17.024;2023-06-19T05:26:47;23.00;57.30
70244;DHT22;57634;51.136;17.024;2023-06-19T05:29:49;24.00;56.50
70244;DHT22;57634;51.136;17.024;2023-06-19T05:32:50;25.30;54.10
70244;DHT22;57634;51.136;17.024;2023-06-19T05:36:19;26.30;51.70
70244;DHT22;57634;51.136;17.024;2023-06-19T05:39:20;27.10;48.20
70244;DHT22;57634;51.136;17.024;2023-06-19T05:42:21;27.30;46.80
70244;DHT22;57634;51.136;17.024;2023-06-19T05:45:22;27.20;46.20
70244;DHT22;57634;51.136;17.024;2023-06-19T05:48:23;27.20;46.50
70244;DHT22;57634;51.136;17.024;2023-06-19T05:51:26;27.50;46.80
70244;DHT22;57634;51.136;17.024;2023-06-19T05:54:27;28.70;46.40
70244;DHT22;57634;51.136;17.024;2023-06-19T05:57:28;30.00;42.90
70244;DHT22;57634;51.136;17.024;2023-06-19T06:00:30;31.10;41.50
70244;DHT22;57634;51.136;17.024;2023-06-19T06:03:32;32.50;39.70
70244;DHT22;57634;51.136;17.024;2023-06-19T06:06:34;34.20;37.80
70244;DHT22;57634;51.136;17.024;2023-06-19T06:09:36;36.30;34.40
70244;DHT22;57634;51.136;17.024;2023-06-19T06:12:37;37.90;31.50
70244;DHT22;57634;51.136;17.024;2023-06-19T06:15:39;39.30;29.40
70244;DHT22;57634;51.136;17.024;2023-06-19T06:19:06;39.30;27.80
70244;DHT22;57634;51.136;17.024;2023-06-19T06:22:08;38.30;27.40
70244;DHT22;57634;51.136;17.024;2023-06-19T06:25:09;37.00;27.60
70244;DHT22;57634;51.136;17.024;2023-06-19T06:28:12;35.70;28.30
70244;DHT22;57634;51.136;17.024;2023-06-19T06:31:13;34.40;29.30
70244;DHT22;57634;51.136;17.024;2023-06-19T06:34:14;33.30;30.10
70244;DHT22;57634;51.136;17.024;2023-06-19T06:37:16;32.40;31.50
70244;DHT22;57634;51.136;17.024;2023-06-19T06:40:25;31.50;32.50
70244;DHT22;57634;51.136;17.024;2023-06-19T06:43:27;30.80;33.40
70244;DHT22;57634;51.136;17.024;2023-06-19T06:46:29;30.30;34.10
70244;DHT22;57634;51.136;17.024;2023-06-19T06:49:30;29.90;34.70
70244;DHT22;57634;51.136;17.024;2023-06-19T06:52:31;29.50;35.60
70244;DHT22;57634;51.136;17.024;2023-06-19T06:55:59;29.10;36.30
70244;DHT22;57634;51.136;17.024;2023-06-19T06:59:00;28.80;37.20
70244;DHT22;57634;51.136;17.024;2023-06-19T07:02:02;28.50;37.80
70244;DHT22;57634;51.136;17.024;2023-06-19T07:05:06;28.30;38.30
70244;DHT22;57634;51.136;17.024;2023-06-19T07:08:07;28.10;38.70
70244;DHT22;57634;51.136;17.024;2023-06-19T07:11:08;28.00;39.10
70244;DHT22;57634;51.136;17.024;2023-06-19T07:14:10;27.80;39.40
70244;DHT22;57634;51.136;17.024;2023-06-19T07:17:12;27.80;39.70
70244;DHT22;57634;51.136;17.024;2023-06-19T07:20:14;27.90;39.90
70244;DHT22;57634;51.136;17.024;2023-06-19T07:23:15;28.20;39.90
70244;DHT22;57634;51.136;17.024;2023-06-19T07:26:17;28.50;39.50
70244;DHT22;57634;51.136;17.024;2023-06-19T07:29:18;28.90;39.00
70244;DHT22;57634;51.136;17.024;2023-06-19T07:32:20;29.40;38.20
70244;DHT22;57634;51.136;17.024;2023-06-19T07:35:49;29.70;37.60
70244;DHT22;57634;51.136;17.024;2023-06-19T07:38:51;29.90;37.10
70244;DHT22;57634;51.136;17.024;2023-06-19T07:41:53;30.00;36.80
70244;DHT22;57634;51.136;17.024;2023-06-19T07:44:54;30.10;36.40
70244;DHT22;57634;51.136;17.024;2023-06-19T07:47:56;30.30;36.10
70244;DHT22;57634;51.136;17.024;2023-06-19T07:50:57;30.40;36.00
70244;DHT22;57634;51.136;17.024;2023-06-19T07:53:59;30.60;35.80
70244;DHT22;57634;51.136;17.024;2023-06-19T07:57:00;30.90;35.50
70244;DHT22;57634;51.136;17.024;2023-06-19T08:00:01;31.00;34.90
70244;DHT22;57634;51.136;17.024;2023-06-19T08:03:14;31.10;34.80
70244;DHT22;57634;51.136;17.024;2023-06-19T08:06:15;31.20;35.00
70244;DHT22;57634;51.136;17.024;2023-06-19T08:09:16;31.20;34.70
70244;DHT22;57634;51.136;17.024;2023-06-19T08:12:44;31.20;34.50
70244;DHT22;57634;51.136;17.024;2023-06-19T08:15:45;31.40;34.20
70244;DHT22;57634;51.136;17.024;2023-06-19T08:18:47;31.50;34.00
70244;DHT22;57634;51.136;17.024;2023-06-19T08:21:48;31.80;33.80
70244;DHT22;57634;51.136;17.024;2023-06-19T08:24:49;32.10;33.70
70244;DHT22;57634;51.136;17.024;2023-06-19T08:27:51;32.70;33.10
70244;DHT22;57634;51.136;17.024;2023-06-19T08:30:52;33.40;32.30
70244;DHT22;57634;51.136;17.024;2023-06-19T08:33:54;34.00;31.30
70244;DHT22;57634;51.136;17.024;2023-06-19T08:36:56;34.30;30.50
70244;DHT22;57634;51.136;17.024;2023-06-19T08:39:58;34.40;30.10
70244;DHT22;57634;51.136;17.024;2023-06-19T08:43:00;34.60;29.90
70244;DHT22;57634;51.136;17.024;2023-06-19T08:46:11;34.80;29.70
70244;DHT22;57634;51.136;17.024;2023-06-19T08:51:34;35.40;29.00
70244;DHT22;57634;51.136;17.024;2023-06-19T08:54:35;35.50;28.70
70244;DHT22;57634;51.136;17.024;2023-06-19T08:57:44;35.60;28.70
70244;DHT22;57634;51.136;17.024;2023-06-19T09:00:47;36.10;28.10
70244;DHT22;57634;51.136;17.024;2023-06-19T09:03:48;36.80;27.80
70244;DHT22;57634;51.136;17.024;2023-06-19T09:06:58;37.70;26.80
70244;DHT22;57634;51.136;17.024;2023-06-19T09:09:59;37.90;26.20
70244;DHT22;57634;51.136;17.024;2023-06-19T09:13:03;37.60;26.00
70244;DHT22;57634;51.136;17.024;2023-06-19T09:16:07;37.40;25.40
70244;DHT22;57634;51.136;17.024;2023-06-19T09:19:34;37.20;25.20
70244;DHT22;57634;51.136;17.024;2023-06-19T09:22:38;37.50;25.10
70244;DHT22;57634;51.136;17.024;2023-06-19T09:25:53;37.70;24.60
70244;DHT22;57634;51.136;17.024;2023-06-19T09:28:56;37.30;24.70
70244;DHT22;57634;51.136;17.024;2023-06-19T09:31:58;36.70;25.00
70244;DHT22;57634;51.136;17.024;2023-06-19T09:35:00;36.30;25.60
70244;DHT22;57634;51.136;17.024;2023-06-19T09:38:01;36.00;25.70
70244;DHT22;57634;51.136;17.024;2023-06-19T09:41:04;35.80;26.00
70244;DHT22;57634;51.136;17.024;2023-06-19T09:44:07;36.10;26.20
70244;DHT22;57634;51.136;17.024;2023-06-19T09:47:44;36.60;25.80
70244;DHT22;57634;51.136;17.024;2023-06-19T09:50:48;36.60;25.20
70244;DHT22;57634;51.136;17.024;2023-06-19T09:53:52;36.20;25.20
70244;DHT22;57634;51.136;17.024;2023-06-19T09:56:55;35.70;25.70
70244;DHT22;57634;51.136;17.024;2023-06-19T10:00:03;35.40;26.10
70244;DHT22;57634;51.136;17.024;2023-06-19T10:03:16;35.10;26.30
70244;DHT22;57634;51.136;17.024;2023-06-19T10:06:17;34.70;26.10
70244;DHT22;57634;51.136;17.024;2023-06-19T10:16:21;34.20;26.10
70244;DHT22;57634;51.136;17.024;2023-06-19T10:19:22;34.00;26.00
70244;DHT22;57634;51.136;17.024;2023-06-19T10:22:30;33.70;26.00
70244;DHT22;57634;51.136;17.024;2023-06-19T10:25:37;33.40;26.00
70244;DHT22;57634;51.136;17.024;2023-06-19T10:29:14;33.00;26.30
70244;DHT22;57634;51.136;17.024;2023-06-19T10:32:15;32.70;26.60
70244;DHT22;57634;51.136;17.024;2023-06-19T10:35:18;32.80;26.60
70244;DHT22;57634;51.136;17.024;2023-06-19T10:38:22;32.90;26.40
70244;DHT22;57634;51.136;17.024;2023-06-19T10:41:24;33.00;26.40
70244;DHT22;57634;51.136;17.024;2023-06-19T10:44:26;33.00;26.10
70244;DHT22;57634;51.136;17.024;2023-06-19T10:47:27;32.80;26.30
70244;DHT22;57634;51.136;17.024;2023-06-19T10:50:33;32.60;26.50
70244;DHT22;57634;51.136;17.024;2023-06-19T10:53:36;32.20;26.70
70244;DHT22;57634;51.136;17.024;2023-06-19T10:56:37;32.00;26.90
70244;DHT22;57634;51.136;17.024;2023-06-19T11:00:05;32.00;27.00
70244;DHT22;57634;51.136;17.024;2023-06-19T11:03:13;32.00;25.90
70244;DHT22;57634;51.136;17.024;2023-06-19T11:06:20;32.20;25.40
70244;DHT22;57634;51.136;17.024;2023-06-19T11:09:21;32.40;25.40
70244;DHT22;57634;51.136;17.024;2023-06-19T11:12:23;32.50;25.30
70244;DHT22;57634;51.136;17.024;2023-06-19T11:15:34;32.80;25.30
70244;DHT22;57634;51.136;17.024;2023-06-19T11:18:36;33.10;25.30
70244;DHT22;57634;51.136;17.024;2023-06-19T11:21:37;33.20;25.40
70244;DHT22;57634;51.136;17.024;2023-06-19T11:25:10;33.00;25.10
70244;DHT22;57634;51.136;17.024;2023-06-19T11:28:13;32.70;24.90
70244;DHT22;57634;51.136;17.024;2023-06-19T11:31:15;32.70;24.80
70244;DHT22;57634;51.136;17.024;2023-06-19T11:34:17;32.80;24.60
70244;DHT22;57634;51.136;17.024;2023-06-19T11:37:19;33.00;24.70
70244;DHT22;57634;51.136;17.024;2023-06-19T11:40:22;33.30;24.60
70244;DHT22;57634;51.136;17.024;2023-06-19T11:43:26;33.40;24.40
70244;DHT22;57634;51.136;17.024;2023-06-19T11:46:32;33.60;24.60
70244;DHT22;57634;51.136;17.024;2023-06-19T11:49:36;33.80;24.60
70244;DHT22;57634;51.136;17.024;2023-06-19T11:52:37;33.80;24.60
70244;DHT22;57634;51.136;17.024;2023-06-19T11:55:38;33.80;24.60
70244;DHT22;57634;51.136;17.024;2023-06-19T11:59:05;33.60;24.50
70244;DHT22;57634;51.136;17.024;2023-06-19T12:02:07;33.40;24.50
70244;DHT22;57634;51.136;17.024;2023-06-19T12:05:09;33.40;24.80
70244;DHT22;57634;51.136;17.024;2023-06-19T12:08:11;33.30;24.90
70244;DHT22;57634;51.136;17.024;2023-06-19T12:11:12;33.40;25.10
70244;DHT22;57634;51.136;17.024;2023-06-19T12:14:14;33.40;25.00
70244;DHT22;57634;51.136;17.024;2023-06-19T12:17:16;33.60;25.00
70244;DHT22;57634;51.136;17.024;2023-06-19T12:20:17;33.80;25.00
70244;DHT22;57634;51.136;17.024;2023-06-19T12:23:19;33.80;25.00
70244;DHT22;57634;51.136;17.024;2023-06-19T12:26:21;33.80;24.90
70244;DHT22;57634;51.136;17.024;2023-06-19T12:29:25;33.80;24.90
70244;DHT22;57634;51.136;17.024;2023-06-19T12:32:27;33.80;24.90
70244;DHT22;57634;51.136;17.024;2023-06-19T12:35:29;33.60;25.00
70244;DHT22;57634;51.136;17.024;2023-06-19T12:38:55;33.40;25.10
70244;DHT22;57634;51.136;17.024;2023-06-19T12:41:57;33.10;25.10
70244;DHT22;57634;51.136;17.024;2023-06-19T12:44:58;32.90;25.30
70244;DHT22;57634;51.136;17.024;2023-06-19T12:48:00;32.80;25.40
70244;DHT22;57634;51.136;17.024;2023-06-19T12:51:01;32.80;25.40
70244;DHT22;57634;51.136;17.024;2023-06-19T12:54:03;32.70;25.50
70244;DHT22;57634;51.136;17.024;2023-06-19T12:57:05;32.70;25.80
70244;DHT22;57634;51.136;17.024;2023-06-19T13:00:11;32.60;26.00
70244;DHT22;57634;51.136;17.024;2023-06-19T13:03:12;32.50;26.20
70244;DHT22;57634;51.136;17.024;2023-06-19T13:06:13;32.30;26.20
70244;DHT22;57634;51.136;17.024;2023-06-19T13:09:15;32.30;26.30
70244;DHT22;57634;51.136;17.024;2023-06-19T13:12:16;32.20;26.50
70244;DHT22;57634;51.136;17.024;2023-06-19T13:15:18;32.20;26.40
70244;DHT22;57634;51.136;17.024;2023-06-19T13:18:45;32.10;26.40
70244;DHT22;57634;51.136;17.024;2023-06-19T13:21:47;32.10;26.60
70244;DHT22;57634;51.136;17.024;2023-06-19T13:24:48;32.10;26.70
70244;DHT22;57634;51.136;17.024;2023-06-19T13:27:50;32.20;26.80
70244;DHT22;57634;51.136;17.024;2023-06-19T13:30:52;32.30;26.90
70244;DHT22;57634;51.136;17.024;2023-06-19T13:33:53;32.40;26.90
70244;DHT22;57634;51.136;17.024;2023-06-19T13:36:54;32.50;26.90
70244;DHT22;57634;51.136;17.024;2023-06-19T13:39:56;32.50;26.80
70244;DHT22;57634;51.136;17.024;2023-06-19T13:42:57;32.60;26.80
70244;DHT22;57634;51.136;17.024;2023-06-19T13:46:01;32.60;26.90
70244;DHT22;57634;51.136;17.024;2023-06-19T13:49:07;32.50;26.90
70244;DHT22;57634;51.136;17.024;2023-06-19T13:52:08;32.50;27.00
70244;DHT22;57634;51.136;17.024;2023-06-19T13:55:09;32.30;27.10
70244;DHT22;57634;51.136;17.024;2023-06-19T13:58:36;32.30;27.20
70244;DHT22;57634;51.136;17.024;2023-06-19T14:01:37;32.20;27.40
70244;DHT22;57634;51.136;17.024;2023-06-19T14:04:38;32.20;27.50
70244;DHT22;57634;51.136;17.024;2023-06-19T14:07:41;32.10;27.40
70244;DHT22;57634;51.136;17.024;2023-06-19T14:10:45;32.00;27.50
70244;DHT22;57634;51.136;17.024;2023-06-19T14:13:47;32.00;27.70
70244;DHT22;57634;51.136;17.024;2023-06-19T14:16:49;31.90;27.70
70244;DHT22;57634;51.136;17.024;2023-06-19T14:19:50;31.80;27.70
70244;DHT22;57634;51.136;17.024;2023-06-19T14:22:52;31.60;27.60
70244;DHT22;57634;51.136;17.024;2023-06-19T14:25:54;31.50;27.70
70244;DHT22;57634;51.136;17.024;2023-06-19T14:28:55;31.40;27.90
70244;DHT22;57634;51.136;17.024;2023-06-19T14:31:59;31.40;28.10
70244;DHT22;57634;51.136;17.024;2023-06-19T14:35:30;31.30;28.20
70244;DHT22;57634;51.136;17.024;2023-06-19T14:38:34;31.30;28.60
70244;DHT22;57634;51.136;17.024;2023-06-19T14:41:35;31.30;28.70
70244;DHT22;57634;51.136;17.024;2023-06-19T14:44:37;31.20;28.60
70244;DHT22;57634;51.136;17.024;2023-06-19T14:47:38;31.20;28.70
70244;DHT22;57634;51.136;17.024;2023-06-19T14:50:40;31.10;28.70
70244;DHT22;57634;51.136;17.024;2023-06-19T14:53:42;31.00;28.80
70244;DHT22;57634;51.136;17.024;2023-06-19T14:56:44;31.00;29.00
70244;DHT22;57634;51.136;17.024;2023-06-19T14:59:49;30.80;29.10
70244;DHT22;57634;51.136;17.024;2023-06-19T15:02:50;30.80;29.40
70244;DHT22;57634;51.136;17.024;2023-06-19T15:05:52;30.70;29.60
70244;DHT22;57634;51.136;17.024;2023-06-19T15:08:53;30.70;29.50
70244;DHT22;57634;51.136;17.024;2023-06-19T15:11:55;30.60;29.50
70244;DHT22;57634;51.136;17.024;2023-06-19T15:15:22;30.60;29.60
70244;DHT22;57634;51.136;17.024;2023-06-19T15:18:27;30.50;29.70
70244;DHT22;57634;51.136;17.024;2023-06-19T15:21:28;30.50;29.80
70244;DHT22;57634;51.136;17.024;2023-06-19T15:27:46;30.40;30.40
70244;DHT22;57634;51.136;17.024;2023-06-19T15:30:47;30.30;30.50
70244;DHT22;57634;51.136;17.024;2023-06-19T15:33:50;30.20;30.60
70244;DHT22;57634;51.136;17.024;2023-06-19T15:36:51;30.20;30.90
70244;DHT22;57634;51.136;17.024;2023-06-19T15:39:52;30.10;30.90
70244;DHT22;57634;51.136;17.024;2023-06-19T15:43:25;30.00;31.00
70244;DHT22;57634;51.136;17.024;2023-06-19T15:46:31;29.90;31.30
70244;DHT22;57634;51.136;17.024;2023-06-19T15:49:32;29.80;31.30
70244;DHT22;57634;51.136;17.024;2023-06-19T15:52:35;29.80;31.50
70244;DHT22;57634;51.136;17.024;2023-06-19T15:55:36;29.70;31.80
70244;DHT22;57634;51.136;17.024;2023-06-19T15:58:38;29.60;32.00
70244;DHT22;57634;51.136;17.024;2023-06-19T16:01:39;29.60;32.40
70244;DHT22;57634;51.136;17.024;2023-06-19T16:04:40;29.50;32.50
70244;DHT22;57634;51.136;17.024;2023-06-19T16:07:42;29.50;32.50
70244;DHT22;57634;51.136;17.024;2023-06-19T16:10:44;29.40;32.60
70244;DHT22;57634;51.136;17.024;2023-06-19T16:13:46;29.30;32.70
70244;DHT22;57634;51.136;17.024;2023-06-19T16:16:47;29.30;32.80
70244;DHT22;57634;51.136;17.024;2023-06-19T16:19:49;29.30;33.00
70244;DHT22;57634;51.136;17.024;2023-06-19T16:23:16;29.30;33.20
70244;DHT22;57634;51.136;17.024;2023-06-19T16:26:17;29.20;33.30
70244;DHT22;57634;51.136;17.024;2023-06-19T16:29:19;29.20;33.50
70244;DHT22;57634;51.136;17.024;2023-06-19T16:32:20;29.10;33.70
70244;DHT22;57634;51.136;17.024;2023-06-19T16:35:22;29.10;33.80
70244;DHT22;57634;51.136;17.024;2023-06-19T16:38:23;29.00;33.80
70244;DHT22;57634;51.136;17.024;2023-06-19T16:41:25;28.90;33.80
70244;DHT22;57634;51.136;17.024;2023-06-19T16:44:27;28.90;34.00
70244;DHT22;57634;51.136;17.024;2023-06-19T16:47:28;28.80;34.00
70244;DHT22;57634;51.136;17.024;2023-06-19T16:50:29;28.80;34.20
70244;DHT22;57634;51.136;17.024;2023-06-19T16:53:30;28.80;34.20
70244;DHT22;57634;51.136;17.024;2023-06-19T16:56:32;28.80;34.30
70244;DHT22;57634;51.136;17.024;2023-06-19T16:59:33;28.80;34.40
70244;DHT22;57634;51.136;17.024;2023-06-19T17:02:34;28.70;34.50
70244;DHT22;57634;51.136;17.024;2023-06-19T17:06:04;28.70;34.60
70244;DHT22;57634;51.136;17.024;2023-06-19T17:09:05;28.70;34.90
70244;DHT22;57634;51.136;17.024;2023-06-19T17:12:07;28.60;35.10
70244;DHT22;57634;51.136;17.024;2023-06-19T17:15:09;28.60;35.30
70244;DHT22;57634;51.136;17.024;2023-06-19T17:18:11;28.60;35.50
70244;DHT22;57634;51.136;17.024;2023-06-19T17:21:14;28.60;35.50
70244;DHT22;57634;51.136;17.024;2023-06-19T17:24:16;28.60;35.50
70244;DHT22;57634;51.136;17.024;2023-06-19T17:27:17;28.60;35.50
70244;DHT22;57634;51.136;17.024;2023-06-19T17:30:18;28.60;35.50
70244;DHT22;57634;51.136;17.024;2023-06-19T17:33:19;28.50;35.40
70244;DHT22;57634;51.136;17.024;2023-06-19T17:36:21;28.50;35.40
70244;DHT22;57634;51.136;17.024;2023-06-19T17:39:24;28.40;35.50
70244;DHT22;57634;51.136;17.024;2023-06-19T17:42:25;28.40;35.70
70244;DHT22;57634;51.136;17.024;2023-06-19T17:45:53;28.40;35.80
70244;DHT22;57634;51.136;17.024;2023-06-19T17:48:54;28.40;36.10
70244;DHT22;57634;51.136;17.024;2023-06-19T17:51:56;28.30;36.10
70244;DHT22;57634;51.136;17.024;2023-06-19T17:54:58;28.20;36.20
70244;DHT22;57634;51.136;17.024;2023-06-19T17:57:59;28.10;36.20
70244;DHT22;57634;51.136;17.024;2023-06-19T18:01:00;28.00;36.40
70244;DHT22;57634;51.136;17.024;2023-06-19T18:04:02;27.90;36.40
70244;DHT22;57634;51.136;17.024;2023-06-19T18:07:04;27.90;36.60
70244;DHT22;57634;51.136;17.024;2023-06-19T18:10:07;27.80;36.60
70244;DHT22;57634;51.136;17.024;2023-06-19T18:13:08;27.70;36.70
70244;DHT22;57634;51.136;17.024;2023-06-19T18:16:09;27.60;36.80
70244;DHT22;57634;51.136;17.024;2023-06-19T18:19:11;27.60;37.00
70244;DHT22;57634;51.136;17.024;2023-06-19T18:22:12;27.50;37.20
70244;DHT22;57634;51.136;17.024;2023-06-19T18:25:14;27.50;37.30
70244;DHT22;57634;51.136;17.024;2023-06-19T18:28:41;27.40;37.50
70244;DHT22;57634;51.136;17.024;2023-06-19T18:31:42;27.40;37.90
70244;DHT22;57634;51.136;17.024;2023-06-19T18:34:43;27.30;38.00
70244;DHT22;57634;51.136;17.024;2023-06-19T18:37:44;27.20;38.20
70244;DHT22;57634;51.136;17.024;2023-06-19T18:40:45;27.10;38.40
70244;DHT22;57634;51.136;17.024;2023-06-19T18:43:49;27.00;38.50
70244;DHT22;57634;51.136;17.024;2023-06-19T18:46:50;27.00;38.70
70244;DHT22;57634;51.136;17.024;2023-06-19T18:49:51;26.90;38.90
70244;DHT22;57634;51.136;17.024;2023-06-19T18:52:52;26.90;39.10
70244;DHT22;57634;51.136;17.024;2023-06-19T18:55:55;26.80;39.30
70244;DHT22;57634;51.136;17.024;2023-06-19T18:58:57;26.70;39.40
70244;DHT22;57634;51.136;17.024;2023-06-19T19:01:58;26.70;39.70
70244;DHT22;57634;51.136;17.024;2023-06-19T19:04:59;26.60;40.00
70244;DHT22;57634;51.136;17.024;2023-06-19T19:08:02;26.50;40.10
70244;DHT22;57634;51.136;17.024;2023-06-19T19:11:29;26.50;40.40
70244;DHT22;57634;51.136;17.024;2023-06-19T19:14:30;26.40;40.80
70244;DHT22;57634;51.136;17.024;2023-06-19T19:17:31;26.30;41.10
70244;DHT22;57634;51.136;17.024;2023-06-19T19:20:35;26.30;41.30